createdAt,value
2022-11-28T00:03:04.491Z,15.13
2022-11-28T00:06:09.068Z,15.83
2022-11-28T00:09:12.945Z,14.10
2022-11-28T00:12:16.039Z,14.60
2022-11-28T00:15:19.251Z,14.77
2022-11-28T00:18:23.711Z,14.13
2022-11-28T00:21:27.025Z,16.13
2022-11-28T00:24:30.129Z,16.50
2022-11-28T00:27:35.489Z,18.20
2022-11-28T00:30:39.191Z,15.47
2022-11-28T00:33:43.688Z,17.63
2022-11-28T00:36:48.387Z,15.83
2022-11-28T00:39:51.664Z,15.53
2022-11-28T00:42:54.741Z,14.97
2022-11-28T00:45:58.108Z,16.10
2022-11-28T00:49:02.804Z,14.63
2022-11-28T00:52:06.163Z,17.27
2022-11-28T00:55:09.922Z,14.77
2022-11-28T00:58:13.095Z,18.53
2022-11-28T01:01:19.056Z,18.63
2022-11-28T01:04:23.647Z,17.03
2022-11-28T01:07:28.668Z,13.57
2022-11-28T01:10:32.028Z,21.17
2022-11-28T01:13:35.151Z,23.80
2022-11-28T01:16:38.726Z,18.10
2022-11-28T01:19:43.298Z,19.37
2022-11-28T01:22:46.376Z,18.07
2022-11-28T01:25:49.472Z,15.50
2022-11-28T01:28:52.949Z,17.10
2022-11-28T01:31:57.640Z,15.10
2022-11-28T01:35:02.177Z,13.80
2022-11-28T01:38:05.330Z,16.00
2022-11-28T01:41:09.417Z,15.50
2022-11-28T01:44:45.729Z,14.90
2022-11-28T01:47:52.311Z,13.57
2022-11-28T01:51:01.117Z,16.00
2022-11-28T01:54:05.108Z,19.53
2022-11-28T01:57:10.745Z,12.83
2022-11-28T02:00:16.001Z,18.00
2022-11-28T02:03:22.834Z,16.63
2022-11-28T02:06:28.648Z,16.67
2022-11-28T02:09:31.777Z,13.33
2022-11-28T02:12:56.473Z,17.73
2022-11-28T02:16:10.656Z,13.47
2022-11-28T02:19:38.044Z,13.57
2022-11-28T02:22:47.735Z,13.87
2022-11-28T02:26:23.631Z,11.27
2022-11-28T02:29:57.613Z,11.83
2022-11-28T02:33:23.594Z,14.00
2022-11-28T02:36:33.019Z,13.20
2022-11-28T02:39:44.701Z,14.17
2022-11-28T02:42:56.853Z,11.63
2022-11-28T02:46:07.987Z,13.40
2022-11-28T02:49:17.295Z,16.77
2022-11-28T02:52:25.197Z,12.87
2022-11-28T02:55:28.855Z,13.00
2022-11-28T02:58:31.981Z,12.37
2022-11-28T03:01:38.413Z,10.17
2022-11-28T03:04:51.674Z,12.20
2022-11-28T03:08:06.502Z,12.50
2022-11-28T03:11:17.549Z,14.03
2022-11-28T03:14:30.391Z,12.70
2022-11-28T03:17:44.420Z,13.10
2022-11-28T03:20:53.250Z,13.40
2022-11-28T03:24:01.506Z,18.03
2022-11-28T03:27:08.999Z,11.77
2022-11-28T03:30:19.531Z,14.53
2022-11-28T03:33:24.932Z,13.53
2022-11-28T03:36:32.709Z,15.00
2022-11-28T03:39:40.147Z,14.07
2022-11-28T03:42:46.984Z,12.83
2022-11-28T03:45:54.901Z,13.37
2022-11-28T03:49:01.224Z,13.27
2022-11-28T03:52:08.335Z,21.73
2022-11-28T03:55:15.224Z,13.60
2022-11-28T03:58:24.622Z,27.93
2022-11-28T04:01:35.502Z,16.87
2022-11-28T04:04:47.855Z,13.87
2022-11-28T04:07:59.161Z,13.60
2022-11-28T04:11:08.870Z,13.90
2022-11-28T04:14:19.022Z,14.07
2022-11-28T04:17:31.994Z,12.57
2022-11-28T04:20:40.137Z,14.40
2022-11-28T04:23:46.808Z,12.97
2022-11-28T04:26:55.975Z,13.57
2022-11-28T04:30:02.057Z,13.70
2022-11-28T04:33:10.312Z,15.17
2022-11-28T04:36:15.872Z,13.70
2022-11-28T04:39:23.935Z,14.60
2022-11-28T04:42:34.783Z,14.63
2022-11-28T04:45:41.297Z,12.97
2022-11-28T04:48:44.751Z,16.50
2022-11-28T04:51:53.503Z,11.73
2022-11-28T04:55:04.626Z,12.93
2022-11-28T04:58:13.261Z,12.50
2022-11-28T05:01:22.519Z,14.30
2022-11-28T05:04:26.033Z,14.20
2022-11-28T05:07:29.246Z,14.57
2022-11-28T05:10:33.792Z,12.40
2022-11-28T05:13:36.869Z,13.83
2022-11-28T05:16:39.994Z,11.37
2022-11-28T05:19:43.188Z,10.73
2022-11-28T05:22:46.241Z,13.03
2022-11-28T05:25:50.714Z,14.23
2022-11-28T05:28:54.043Z,16.80
2022-11-28T05:31:57.222Z,20.23
2022-11-28T05:35:00.408Z,15.73
2022-11-28T05:38:03.519Z,18.10
2022-11-28T05:41:08.290Z,15.87
2022-11-28T05:44:11.615Z,18.30
2022-11-28T05:47:15.887Z,15.87
2022-11-28T05:50:19.078Z,14.40
2022-11-28T05:53:22.215Z,16.60
2022-11-28T05:56:26.743Z,19.20
2022-11-28T05:59:29.866Z,20.10
2022-11-28T06:02:32.971Z,17.87
2022-11-28T06:05:43.539Z,17.00
2022-11-28T06:08:48.350Z,16.90
2022-11-28T06:11:52.832Z,15.73
2022-11-28T06:14:55.938Z,14.40
2022-11-28T06:17:59.038Z,13.70
2022-11-28T06:21:03.064Z,14.63
2022-11-28T06:24:06.612Z,16.47
2022-11-28T06:27:11.101Z,14.47
2022-11-28T06:30:15.067Z,16.30
2022-11-28T06:33:18.161Z,47.77
2022-11-28T06:36:22.790Z,22.77
2022-11-28T06:39:25.956Z,21.37
2022-11-28T06:42:30.427Z,29.63
2022-11-28T06:45:34.855Z,29.17
2022-11-28T06:48:38.799Z,27.10
2022-11-28T06:51:42.553Z,61.33
2022-11-28T06:54:45.754Z,38.50
2022-11-28T06:57:50.266Z,40.17
2022-11-28T07:00:53.525Z,47.47
2022-11-28T07:03:57.026Z,25.47
2022-11-28T07:07:00.168Z,22.47
2022-11-28T07:10:03.293Z,23.13
2022-11-28T07:13:07.869Z,21.10
2022-11-28T07:16:16.260Z,23.20
2022-11-28T07:19:22.805Z,14.40
2022-11-28T07:22:25.893Z,11.90
2022-11-28T07:25:29.001Z,12.30
2022-11-28T07:28:34.835Z,12.37
2022-11-28T07:31:38.508Z,12.47
2022-11-28T07:34:45.508Z,12.30
2022-11-28T07:37:50.880Z,13.27
2022-11-28T07:40:53.983Z,18.13
2022-11-28T07:44:00.143Z,27.17
2022-11-28T07:47:03.466Z,20.60
2022-11-28T07:50:07.810Z,27.37
2022-11-28T07:53:13.543Z,27.27
2022-11-28T07:56:18.678Z,32.73
2022-11-28T07:59:23.150Z,28.17
2022-11-28T08:02:27.298Z,31.03
2022-11-28T08:05:30.607Z,31.13
2022-11-28T08:08:34.463Z,28.90
2022-11-28T08:11:37.941Z,23.07
2022-11-28T08:14:42.821Z,27.17
2022-11-28T08:17:46.060Z,23.30
2022-11-28T08:20:49.169Z,25.10
2022-11-28T08:23:53.046Z,28.70
2022-11-28T08:26:56.153Z,29.97
2022-11-28T08:30:00.632Z,32.83
2022-11-28T08:33:04.392Z,29.90
2022-11-28T08:36:08.734Z,29.00
2022-11-28T08:39:28.021Z,25.00
2022-11-28T08:42:31.112Z,27.60
2022-11-28T08:45:37.507Z,25.80
2022-11-28T08:48:41.598Z,32.37
2022-11-28T08:51:44.767Z,26.23
2022-11-28T08:54:47.890Z,30.80
2022-11-28T08:57:51.016Z,32.10
2022-11-28T09:00:55.607Z,28.57
2022-11-28T09:03:59.451Z,21.70
2022-11-28T09:07:02.637Z,20.37
2022-11-28T09:10:06.538Z,26.97
2022-11-28T09:13:10.160Z,19.27
2022-11-28T09:16:15.400Z,22.40
2022-11-28T09:19:18.636Z,24.23
2022-11-28T09:22:21.716Z,20.20
2022-11-28T09:25:24.839Z,21.27
2022-11-28T09:28:28.902Z,21.77
2022-11-28T09:31:33.499Z,22.20
2022-11-28T09:34:36.670Z,26.20
2022-11-28T09:37:39.779Z,20.13
2022-11-28T09:40:45.226Z,23.13
2022-11-28T09:43:54.582Z,20.20
2022-11-28T09:47:01.830Z,19.70
2022-11-28T09:50:10.894Z,17.00
2022-11-28T09:53:22.291Z,17.27
2022-11-28T09:56:25.507Z,20.13
2022-11-28T09:59:30.971Z,19.67
2022-11-28T10:02:42.114Z,17.57
2022-11-28T10:05:49.914Z,21.03
2022-11-28T10:09:07.178Z,19.83
2022-11-28T10:12:25.818Z,24.60
2022-11-28T10:15:56.939Z,25.17
2022-11-28T10:19:05.124Z,21.90
2022-11-28T10:22:13.053Z,42.67
2022-11-28T10:25:19.771Z,30.63
2022-11-28T10:28:26.161Z,41.77
2022-11-28T10:31:36.049Z,50.57
2022-11-28T10:34:46.311Z,45.30
2022-11-28T10:37:50.888Z,43.70
2022-11-28T10:40:59.678Z,26.00
2022-11-28T10:44:15.810Z,22.57
2022-11-28T10:47:40.482Z,21.67
2022-11-28T10:50:51.986Z,21.30
2022-11-28T10:54:06.805Z,17.83
2022-11-28T10:57:16.570Z,18.70
2022-11-28T11:00:21.051Z,17.90
2022-11-28T11:03:29.010Z,16.77
2022-11-28T11:06:41.770Z,16.20
2022-11-28T11:09:51.078Z,22.27
2022-11-28T11:12:54.393Z,17.50
2022-11-28T11:16:01.354Z,18.60
2022-11-28T11:19:04.449Z,14.80
2022-11-28T11:22:21.998Z,15.80
2022-11-28T11:25:26.478Z,15.90
2022-11-28T11:28:42.687Z,18.00
2022-11-28T11:31:52.640Z,22.30
2022-11-28T11:34:57.999Z,19.90
2022-11-28T11:41:32.168Z,16.90
2022-11-28T11:44:36.162Z,17.30
2022-11-28T11:47:43.036Z,17.87
2022-11-28T11:50:55.590Z,23.80
2022-11-28T11:54:03.631Z,18.40
2022-11-28T11:57:31.877Z,18.30
2022-11-28T12:00:39.912Z,19.80
2022-11-28T12:03:50.374Z,19.10
2022-11-28T12:06:55.073Z,16.40
2022-11-28T12:10:04.158Z,16.67
2022-11-28T12:13:18.117Z,18.50
2022-11-28T12:16:50.056Z,15.10
2022-11-28T12:20:06.227Z,17.60
2022-11-28T12:23:41.831Z,15.47
2022-11-28T12:26:50.016Z,17.80
2022-11-28T12:30:03.712Z,18.47
2022-11-28T12:33:20.344Z,14.80
2022-11-28T12:36:30.115Z,16.43
2022-11-28T12:39:44.071Z,17.00
2022-11-28T12:42:58.986Z,17.60
2022-11-28T12:46:12.161Z,23.90
2022-11-28T12:49:19.683Z,18.60
2022-11-28T12:52:37.179Z,18.23
2022-11-28T12:55:48.618Z,18.13
2022-11-28T12:58:58.388Z,16.93
2022-11-28T13:02:19.482Z,22.03
2022-11-28T13:05:50.030Z,23.67
2022-11-28T13:09:17.912Z,52.80
2022-11-28T13:12:29.716Z,27.93
2022-11-28T13:15:46.802Z,40.97
2022-11-28T13:18:59.709Z,24.83
2022-11-28T13:22:09.940Z,18.23
2022-11-28T13:25:23.199Z,18.57
2022-11-28T13:28:35.465Z,18.87
2022-11-28T13:31:43.713Z,21.57
2022-11-28T13:34:49.948Z,29.40
2022-11-28T13:42:05.879Z,20.60
2022-11-28T13:44:58.976Z,21.40
2022-11-28T13:49:12.607Z,18.70
2022-11-28T13:52:42.430Z,17.30
2022-11-28T13:55:47.412Z,19.87
2022-11-28T13:58:54.138Z,18.40
2022-11-28T14:02:00.641Z,19.30
2022-11-28T14:05:04.845Z,23.73
2022-11-28T14:08:09.614Z,20.50
2022-11-28T14:11:40.309Z,21.27
2022-11-28T14:15:19.009Z,24.87
2022-11-28T14:22:13.654Z,22.37
2022-11-28T14:25:21.914Z,21.90
2022-11-28T14:28:27.877Z,24.00
2022-11-28T14:31:34.373Z,24.70
2022-11-28T14:34:40.849Z,25.20
2022-11-28T14:37:55.546Z,27.73
2022-11-28T14:41:04.983Z,25.60
2022-11-28T14:44:48.390Z,27.33
2022-11-28T14:48:16.750Z,25.90
2022-11-28T14:51:20.225Z,25.70
2022-11-28T14:54:25.698Z,22.00
2022-11-28T14:57:35.703Z,24.73
2022-11-28T15:00:48.365Z,22.53
2022-11-28T15:04:00.040Z,25.17
2022-11-28T15:07:05.122Z,22.93
2022-11-28T15:10:14.331Z,25.60
2022-11-28T15:13:32.600Z,36.53
2022-11-28T15:16:37.745Z,39.57
2022-11-28T15:19:46.134Z,25.67
2022-11-28T15:22:49.362Z,28.50
2022-11-28T15:25:56.834Z,32.00
2022-11-28T15:29:11.489Z,30.43
2022-11-28T15:32:16.580Z,32.33
2022-11-28T15:35:19.859Z,34.80
2022-11-28T15:38:23.732Z,30.30
2022-11-28T15:41:28.875Z,32.73
2022-11-28T15:44:33.546Z,30.00
2022-11-28T15:47:37.550Z,32.93
2022-11-28T15:50:51.871Z,35.13
2022-11-28T15:53:55.235Z,33.30
2022-11-28T15:56:58.651Z,30.13
2022-11-28T16:00:05.199Z,35.07
2022-11-28T16:03:11.568Z,33.40
2022-11-28T16:06:15.276Z,28.23
2022-11-28T16:09:29.699Z,32.63
2022-11-28T16:12:33.053Z,34.93
2022-11-28T16:15:38.679Z,36.77
2022-11-28T16:18:46.536Z,35.17
2022-11-28T16:21:55.367Z,32.80
2022-11-28T16:25:00.463Z,31.43
2022-11-28T16:28:04.626Z,35.63
2022-11-28T16:31:14.870Z,33.40
2022-11-28T16:34:38.815Z,31.53
2022-11-28T16:37:44.041Z,35.57
2022-11-28T16:40:47.635Z,31.47
2022-11-28T16:43:57.015Z,34.60
2022-11-28T16:47:03.339Z,35.63
2022-11-28T16:50:20.256Z,31.43
2022-11-28T16:53:45.063Z,29.10
2022-11-28T16:56:49.599Z,36.73
2022-11-28T16:59:54.220Z,33.40
2022-11-28T17:02:59.150Z,39.03
2022-11-28T17:06:03.007Z,34.40
2022-11-28T17:09:09.422Z,35.90
2022-11-28T17:12:26.916Z,33.13
2022-11-28T17:15:31.019Z,34.27
2022-11-28T17:18:37.036Z,51.57
2022-11-28T17:21:43.787Z,45.83
2022-11-28T17:24:49.782Z,54.57
2022-11-28T17:27:54.861Z,62.77
2022-11-28T17:30:58.513Z,71.67
2022-11-28T17:34:04.994Z,63.80
2022-11-28T17:37:10.237Z,57.77
2022-11-28T17:40:31.921Z,71.07
2022-11-28T17:43:39.272Z,60.03
2022-11-28T17:46:44.863Z,53.43
2022-11-28T17:49:52.277Z,50.77
2022-11-28T17:53:00.190Z,51.33
2022-11-28T17:56:04.916Z,37.87
2022-11-28T17:59:12.216Z,36.03
2022-11-28T18:02:20.839Z,33.83
2022-11-28T18:05:26.237Z,38.17
2022-11-28T18:08:30.427Z,31.70
2022-11-28T18:11:36.231Z,35.10
2022-11-28T18:14:40.063Z,40.13
2022-11-28T18:17:49.801Z,37.37
2022-11-28T18:20:55.321Z,37.80
2022-11-28T18:24:00.387Z,32.27
2022-11-28T18:27:04.846Z,29.87
2022-11-28T18:30:10.496Z,36.43
2022-11-28T18:33:15.321Z,32.87
2022-11-28T18:36:22.501Z,37.30
2022-11-28T18:39:28.217Z,33.40
2022-11-28T18:42:33.431Z,36.00
2022-11-28T18:45:37.480Z,34.80
2022-11-28T18:48:44.156Z,33.67
2022-11-28T18:51:49.916Z,31.33
2022-11-28T18:54:53.805Z,36.30
2022-11-28T18:58:00.495Z,32.70
2022-11-28T19:01:15.188Z,36.83
2022-11-28T19:04:19.771Z,43.60
2022-11-28T19:07:26.460Z,44.53
2022-11-28T19:10:31.180Z,40.80
2022-11-28T19:13:36.093Z,33.03
2022-11-28T19:16:40.206Z,34.83
2022-11-28T19:19:46.590Z,36.30
2022-11-28T19:22:55.862Z,42.17
2022-11-28T19:26:04.394Z,42.50
2022-11-28T19:29:10.007Z,42.17
2022-11-28T19:32:17.666Z,40.83
2022-11-28T19:35:23.487Z,48.47
2022-11-28T19:38:30.291Z,46.00
2022-11-28T19:41:35.686Z,50.70
2022-11-28T19:44:49.528Z,51.77
2022-11-28T19:47:54.096Z,47.30
2022-11-28T19:50:59.462Z,46.77
2022-11-28T19:54:07.284Z,45.40
2022-11-28T19:57:12.392Z,49.93
2022-11-28T20:00:22.941Z,48.83
2022-11-28T20:03:28.024Z,54.40
2022-11-28T20:06:34.658Z,56.90
2022-11-28T20:09:42.170Z,49.97
2022-11-28T20:12:49.416Z,61.13
2022-11-28T20:15:53.550Z,50.50
2022-11-28T20:18:58.811Z,52.40
2022-11-28T20:22:03.362Z,60.13
2022-11-28T20:25:10.730Z,53.97
2022-11-28T20:28:15.602Z,65.53
2022-11-28T20:31:22.659Z,57.07
2022-11-28T20:34:27.509Z,63.10
2022-11-28T20:37:32.451Z,63.23
2022-11-28T20:40:38.330Z,50.43
2022-11-28T20:43:46.418Z,63.27
2022-11-28T20:46:51.224Z,60.30
2022-11-28T20:49:56.146Z,56.23
2022-11-28T20:53:02.513Z,68.23
2022-11-28T20:56:10.588Z,59.83
2022-11-28T20:59:17.956Z,62.50
2022-11-28T21:02:22.218Z,60.13
2022-11-28T21:05:26.544Z,58.33
2022-11-28T21:08:31.669Z,62.10
2022-11-28T21:15:04.087Z,59.70
2022-11-28T21:18:07.671Z,111.90
2022-11-28T21:21:14.142Z,102.97
2022-11-28T21:24:17.406Z,125.63
2022-11-28T21:27:22.542Z,85.43
2022-11-28T21:30:26.550Z,65.73
2022-11-28T21:33:29.732Z,77.53
2022-11-28T21:36:33.475Z,61.13
2022-11-28T21:39:36.605Z,57.07
2022-11-28T21:42:41.135Z,66.47
2022-11-28T21:45:44.364Z,62.23
2022-11-28T21:48:47.651Z,54.73
2022-11-28T21:51:50.861Z,66.37
2022-11-28T21:54:54.014Z,61.03
2022-11-28T21:57:58.596Z,65.53
2022-11-28T22:01:03.486Z,66.03
2022-11-28T22:04:07.208Z,61.10
2022-11-28T22:07:10.685Z,56.83
2022-11-28T22:10:13.807Z,65.90
2022-11-28T22:13:18.397Z,57.30
2022-11-28T22:16:23.840Z,65.60
2022-11-28T22:19:27.091Z,59.53
2022-11-28T22:22:30.280Z,60.10
2022-11-28T22:25:33.430Z,61.77
2022-11-28T22:28:39.488Z,62.33
2022-11-28T22:31:42.732Z,60.27
2022-11-28T22:34:46.250Z,61.40
2022-11-28T22:37:49.604Z,57.97
2022-11-28T22:40:52.729Z,67.67
2022-11-28T22:43:59.494Z,56.87
2022-11-28T22:47:02.676Z,57.53
2022-11-28T22:50:06.951Z,56.00
2022-11-28T22:53:10.060Z,62.53
2022-11-28T22:56:15.545Z,63.07
2022-11-28T22:59:20.039Z,63.63
2022-11-28T23:02:23.271Z,55.40
2022-11-28T23:05:26.479Z,57.40
2022-11-28T23:08:31.102Z,60.73
2022-11-28T23:11:35.969Z,69.83
2022-11-28T23:14:40.553Z,67.13
2022-11-28T23:17:43.760Z,56.30
2022-11-28T23:20:46.942Z,62.37
2022-11-28T23:23:50.335Z,69.57
2022-11-28T23:26:54.704Z,56.20
2022-11-28T23:29:59.221Z,64.00
2022-11-28T23:33:02.316Z,64.40
2022-11-28T23:36:16.300Z,70.63
2022-11-28T23:39:21.812Z,63.17
2022-11-28T23:42:24.930Z,64.20
2022-11-28T23:45:29.448Z,56.90
2022-11-28T23:48:32.676Z,59.70
2022-11-28T23:51:36.333Z,66.63
2022-11-28T23:54:39.416Z,59.43
2022-11-28T23:57:42.515Z,65.93
